Time;durP1;ratioP1;P1;durP2;ratioP2;P2;SDS_P1;SDS_P2;PMS_P1;PMS_P2;Temp;Humidity;BMP_temperature;BMP_pressure;BME280_temperature;BME280_humidity;BME280_pressure;Samples;Min_cycle;Max_cycle;Signal;HPM_P1;HPM_P2
2021/05/13 00:01:35;;;;;;;19.77;11.23;;;11.60;99.90;;;;;;5056674;28;20017;-68
2021/05/13 00:04:03;;;;;;;15.77;11.70;;;11.50;99.90;;;;;;5056102;28;20079;-68
2021/05/13 00:06:30;;;;;;;18.83;12.52;;;11.50;99.90;;;;;;5056764;28;20121;-68
2021/05/13 00:08:58;;;;;;;18.90;12.93;;;11.50;99.90;;;;;;5056128;28;20047;-68
2021/05/13 00:11:33;;;;;;;16.15;11.82;;;11.50;99.90;;;;;;5055957;28;20021;-68
2021/05/13 00:14:03;;;;;;;23.52;14.48;;;11.50;99.90;;;;;;5056546;28;20045;-68
2021/05/13 00:16:32;;;;;;;17.10;11.85;;;11.50;99.90;;;;;;5055941;28;20025;-68
2021/05/13 00:19:06;;;;;;;18.45;12.00;;;11.50;99.90;;;;;;5055966;28;20417;-68
2021/05/13 00:21:35;;;;;;;20.77;12.30;;;11.50;99.90;;;;;;5057196;28;20079;-67
2021/05/13 00:24:03;;;;;;;17.35;11.55;;;11.50;99.90;;;;;;5056684;28;20048;-67
2021/05/13 00:29:27;;;;;;;16.10;11.52;;;11.50;99.90;;;;;;5048763;28;20025;-68
2021/05/13 00:31:55;;;;;;;18.25;12.05;;;11.50;99.90;;;;;;5061352;28;20025;-68
2021/05/13 00:34:22;;;;;;;24.05;12.65;;;11.40;99.90;;;;;;5059407;28;20108;-67
2021/05/13 00:36:50;;;;;;;18.13;12.68;;;11.40;99.90;;;;;;5058627;28;20025;-68
2021/05/13 00:39:17;;;;;;;20.77;13.20;;;11.40;99.90;;;;;;5058451;28;20028;-68
2021/05/13 00:41:45;;;;;;;17.27;11.98;;;11.30;99.90;;;;;;5060208;28;20043;-68
2021/05/13 00:44:12;;;;;;;18.40;12.23;;;11.30;99.90;;;;;;5060132;28;20024;-68
2021/05/13 00:46:40;;;;;;;16.58;11.35;;;11.30;99.90;;;;;;5060033;28;20056;-68
2021/05/13 00:49:14;;;;;;;15.48;10.52;;;11.30;99.90;;;;;;5059994;28;20021;-68
2021/05/13 00:51:42;;;;;;;15.82;12.13;;;11.30;99.90;;;;;;5059818;28;20020;-68
2021/05/13 00:54:10;;;;;;;20.70;12.23;;;11.20;99.90;;;;;;5059080;28;20017;-68
2021/05/13 00:56:38;;;;;;;22.42;11.93;;;11.20;99.90;;;;;;5060893;28;20029;-68
2021/05/13 00:59:08;;;;;;;20.48;13.85;;;11.20;99.90;;;;;;5060810;28;20024;-68
2021/05/13 01:04:19;;;;;;;21.13;13.27;;;11.20;99.90;;;;;;5060212;28;20423;-68
2021/05/13 01:06:48;;;;;;;19.98;13.40;;;11.20;99.90;;;;;;5060639;28;20306;-68
2021/05/13 01:09:30;;;;;;;17.55;12.32;;;11.20;99.90;;;;;;5059072;28;20320;-68
2021/05/13 01:12:03;;;;;;;18.10;13.18;;;11.30;99.90;;;;;;5059784;28;20021;-68
2021/05/13 01:17:18;;;;;;;18.27;12.82;;;11.20;99.90;;;;;;5058854;28;20063;-68
2021/05/13 01:19:51;;;;;;;21.17;14.23;;;11.20;99.90;;;;;;5059193;28;20409;-68
2021/05/13 01:22:21;;;;;;;22.23;14.10;;;11.20;99.90;;;;;;5058817;28;20420;-68
2021/05/13 01:24:49;;;;;;;21.85;14.38;;;11.20;99.90;;;;;;5059346;28;20033;-68
2021/05/13 01:27:19;;;;;;;22.40;13.73;;;11.30;99.90;;;;;;5058687;28;20025;-68
2021/05/13 01:29:49;;;;;;;19.88;13.50;;;11.30;99.90;;;;;;5059677;28;20032;-68
2021/05/13 01:32:18;;;;;;;19.23;13.02;;;11.30;99.90;;;;;;5059691;28;20021;-67
2021/05/13 01:34:46;;;;;;;22.15;13.75;;;11.30;99.90;;;;;;5058492;28;20028;-68
2021/05/13 01:37:16;;;;;;;19.08;13.05;;;11.30;99.90;;;;;;5060031;28;20417;-68
2021/05/13 01:39:43;;;;;;;18.90;12.75;;;11.30;99.90;;;;;;5059701;28;20036;-68
2021/05/13 01:42:14;;;;;;;20.92;13.95;;;11.30;99.90;;;;;;5057691;28;20020;-68
2021/05/13 01:44:41;;;;;;;21.45;13.13;;;11.30;99.90;;;;;;5059108;28;20087;-68
2021/05/13 01:47:09;;;;;;;20.25;13.88;;;11.30;99.90;;;;;;5058992;28;20111;-68
2021/05/13 01:49:36;;;;;;;19.23;13.13;;;11.30;99.90;;;;;;5058447;28;20021;-68
2021/05/13 01:52:04;;;;;;;19.35;13.70;;;11.30;99.90;;;;;;5059138;28;20052;-67
2021/05/13 01:54:31;;;;;;;19.48;13.20;;;11.30;99.90;;;;;;5058844;28;20032;-67
2021/05/13 01:57:07;;;;;;;18.58;12.98;;;11.30;99.90;;;;;;5058333;28;20047;-67
2021/05/13 01:59:34;;;;;;;27.73;14.93;;;11.20;99.90;;;;;;5057872;28;20029;-68
2021/05/13 02:02:03;;;;;;;24.50;13.27;;;11.20;99.90;;;;;;5059092;28;20130;-68
2021/05/13 02:04:30;;;;;;;17.92;12.68;;;11.20;99.90;;;;;;5059642;28;20104;-68
2021/05/13 02:06:58;;;;;;;19.00;12.38;;;11.20;99.90;;;;;;5059174;28;20017;-68
2021/05/13 02:09:26;;;;;;;23.60;14.20;;;11.20;99.90;;;;;;5057838;28;20392;-68
2021/05/13 02:11:54;;;;;;;20.25;14.05;;;11.10;99.90;;;;;;5057867;28;20048;-68
2021/05/13 02:14:22;;;;;;;20.60;13.88;;;11.10;99.90;;;;;;5058063;28;20048;-68
2021/05/13 02:16:49;;;;;;;20.98;12.55;;;11.20;99.90;;;;;;5057971;28;20013;-68
2021/05/13 02:19:16;;;;;;;21.77;13.45;;;11.10;99.90;;;;;;5057856;28;20047;-68
2021/05/13 02:21:44;;;;;;;21.48;12.48;;;11.20;99.90;;;;;;5056709;28;20025;-68
2021/05/13 02:24:12;;;;;;;20.80;13.23;;;11.10;99.90;;;;;;5057687;28;20041;-68
2021/05/13 02:26:40;;;;;;;20.23;14.23;;;11.10;99.90;;;;;;5057938;28;20029;-68
2021/05/13 02:29:08;;;;;;;21.67;14.00;;;11.20;99.90;;;;;;5057669;28;20103;-67
2021/05/13 02:31:35;;;;;;;24.85;15.05;;;11.20;99.90;;;;;;5058671;28;20070;-68
2021/05/13 02:34:04;;;;;;;21.30;13.07;;;11.20;99.90;;;;;;5058310;28;20036;-68
2021/05/13 02:36:32;;;;;;;20.55;13.25;;;11.20;99.90;;;;;;5058932;28;20071;-68
2021/05/13 02:39:00;;;;;;;21.50;13.55;;;11.20;99.90;;;;;;5058966;28;20021;-67
2021/05/13 02:41:28;;;;;;;21.20;13.02;;;11.20;99.90;;;;;;5058969;28;20021;-68
2021/05/13 02:43:55;;;;;;;22.83;13.52;;;11.10;99.90;;;;;;5058878;28;20074;-67
2021/05/13 02:46:23;;;;;;;23.35;14.95;;;11.20;99.90;;;;;;5057325;28;20052;-67
2021/05/13 02:48:51;;;;;;;21.05;13.57;;;11.10;99.90;;;;;;5057325;28;20029;-68
2021/05/13 02:51:19;;;;;;;19.80;13.40;;;11.10;99.90;;;;;;5057779;28;20032;-68
2021/05/13 02:53:48;;;;;;;20.15;13.48;;;11.10;99.90;;;;;;5057240;28;20320;-68
2021/05/13 02:56:16;;;;;;;19.33;13.07;;;11.10;99.90;;;;;;5057262;28;20021;-67
2021/05/13 02:58:46;;;;;;;19.80;12.85;;;11.10;99.90;;;;;;5057164;28;20409;-68
2021/05/13 03:01:29;;;;;;;22.55;14.30;;;11.10;99.90;;;;;;5057873;28;20028;-68
2021/05/13 03:03:59;;;;;;;18.45;11.85;;;11.10;99.90;;;;;;5056905;28;20023;-68
2021/05/13 03:06:27;;;;;;;19.48;13.45;;;11.10;99.90;;;;;;5057722;28;20371;-68
2021/05/13 03:08:56;;;;;;;18.70;12.57;;;11.10;99.90;;;;;;5058402;28;20021;-67
2021/05/13 03:11:27;;;;;;;20.15;13.07;;;11.00;99.90;;;;;;5057848;28;20043;-67
2021/05/13 03:13:57;;;;;;;20.13;12.82;;;11.10;99.90;;;;;;5057846;28;20017;-68
2021/05/13 03:16:25;;;;;;;18.23;12.77;;;11.00;99.90;;;;;;5057588;28;20025;-67
2021/05/13 03:18:55;;;;;;;17.25;12.45;;;11.10;99.90;;;;;;5037800;28;20017;-67
2021/05/13 03:24:05;;;;;;;22.23;13.90;;;11.00;99.90;;;;;;5036689;28;20445;-68
2021/05/13 03:26:42;;;;;;;21.40;12.85;;;11.00;99.90;;;;;;5037302;28;20018;-68
2021/05/13 03:29:10;;;;;;;23.73;14.82;;;11.00;99.90;;;;;;5036561;28;20037;-68
2021/05/13 03:31:38;;;;;;;23.40;13.32;;;11.00;99.90;;;;;;5036934;28;20017;-68
2021/05/13 03:34:06;;;;;;;23.88;15.55;;;11.00;99.90;;;;;;5037118;28;20030;-67
2021/05/13 03:36:34;;;;;;;26.75;16.73;;;11.00;99.90;;;;;;5036669;28;20116;-67
2021/05/13 03:39:06;;;;;;;26.48;16.77;;;11.10;99.90;;;;;;5036731;28;20022;-68
2021/05/13 03:41:34;;;;;;;27.30;15.98;;;11.10;99.90;;;;;;5037588;28;20014;-68
2021/05/13 03:44:03;;;;;;;25.45;14.88;;;11.10;99.90;;;;;;5037346;28;20022;-67
2021/05/13 03:46:31;;;;;;;19.73;13.50;;;11.20;99.90;;;;;;5052939;28;20021;-67
2021/05/13 03:48:59;;;;;;;23.80;14.00;;;11.20;99.90;;;;;;5037356;28;20025;-67
2021/05/13 03:51:27;;;;;;;23.13;14.80;;;11.20;99.90;;;;;;5037569;28;20021;-67
2021/05/13 03:53:54;;;;;;;21.67;13.82;;;11.20;99.90;;;;;;5037787;28;20030;-67
2021/05/13 03:56:22;;;;;;;20.75;13.20;;;11.20;99.90;;;;;;5037321;28;20033;-67
2021/05/13 03:59:02;;;;;;;22.48;14.18;;;11.20;99.90;;;;;;5036913;28;20025;-68
2021/05/13 04:01:50;;;;;;;23.17;13.70;;;11.20;99.90;;;;;;5036523;28;20021;-68
2021/05/13 04:04:18;;;;;;;19.33;12.50;;;11.20;99.90;;;;;;5037017;28;20022;-67
2021/05/13 04:06:45;;;;;;;19.77;12.68;;;11.30;99.90;;;;;;5041027;28;20068;-67
2021/05/13 04:09:15;;;;;;;23.08;13.75;;;11.30;99.90;;;;;;5040407;28;20022;-68
2021/05/13 04:11:42;;;;;;;19.70;12.63;;;11.30;99.90;;;;;;5040564;28;20408;-67
2021/05/13 04:14:10;;;;;;;19.13;11.73;;;11.30;99.90;;;;;;5040765;28;20104;-68
2021/05/13 04:16:41;;;;;;;18.42;12.30;;;11.30;99.90;;;;;;5042797;28;20013;-68
2021/05/13 04:19:10;;;;;;;20.00;13.48;;;11.30;99.90;;;;;;5060908;28;20367;-68
2021/05/13 04:21:37;;;;;;;20.95;11.73;;;11.30;99.90;;;;;;5061106;28;20024;-68
2021/05/13 04:24:05;;;;;;;16.25;11.40;;;11.30;99.90;;;;;;5060792;28;20402;-68
2021/05/13 04:26:33;;;;;;;15.55;10.90;;;11.30;99.90;;;;;;5061059;28;20021;-68
2021/05/13 04:29:01;;;;;;;16.02;10.95;;;11.30;99.90;;;;;;5059833;28;20028;-67
2021/05/13 04:31:28;;;;;;;16.88;10.95;;;11.30;99.90;;;;;;5059697;28;20028;-68
2021/05/13 04:33:55;;;;;;;16.08;10.52;;;11.30;99.90;;;;;;5060384;28;20013;-67
2021/05/13 04:36:23;;;;;;;17.98;12.40;;;11.30;99.90;;;;;;5059762;28;20106;-68
2021/05/13 04:38:50;;;;;;;18.33;11.82;;;11.30;99.90;;;;;;5059777;28;20523;-68
2021/05/13 04:41:18;;;;;;;18.83;12.07;;;11.30;99.90;;;;;;5060265;28;20048;-68
2021/05/13 04:43:45;;;;;;;17.00;11.25;;;11.40;99.90;;;;;;5059607;28;20071;-68
2021/05/13 04:46:13;;;;;;;19.25;11.25;;;11.40;99.90;;;;;;5059555;28;20074;-68
2021/05/13 04:51:25;;;;;;;17.33;11.27;;;11.40;99.90;;;;;;5060451;28;20360;-68
2021/05/13 04:53:54;;;;;;;15.70;10.35;;;11.40;99.90;;;;;;5060699;28;20025;-68
2021/05/13 04:56:22;;;;;;;15.73;10.85;;;11.50;99.90;;;;;;5061011;28;20037;-68
2021/05/13 04:58:51;;;;;;;13.75;10.43;;;11.50;99.90;;;;;;5060354;28;20013;-68
2021/05/13 05:01:19;;;;;;;15.38;10.27;;;11.60;99.90;;;;;;5060314;28;20021;-68
2021/05/13 05:03:47;;;;;;;15.50;10.60;;;11.60;99.90;;;;;;5059687;28;20017;-68
2021/05/13 05:06:15;;;;;;;17.17;10.45;;;11.70;99.90;;;;;;5058220;28;20033;-68
2021/05/13 05:08:44;;;;;;;18.17;10.57;;;11.70;99.90;;;;;;5059819;28;20086;-68
2021/05/13 05:11:12;;;;;;;15.90;10.98;;;11.70;99.90;;;;;;5059223;28;20112;-68
2021/05/13 05:13:39;;;;;;;15.75;10.05;;;11.80;99.90;;;;;;5059511;28;20100;-68
2021/05/13 05:16:07;;;;;;;14.20;9.88;;;11.80;99.90;;;;;;5058939;28;20021;-68
2021/05/13 05:18:35;;;;;;;14.05;10.45;;;11.80;99.90;;;;;;5059106;28;20025;-68
2021/05/13 05:21:03;;;;;;;15.35;9.88;;;11.80;99.90;;;;;;5059395;28;20021;-68
2021/05/13 05:23:32;;;;;;;12.75;9.00;;;11.80;99.90;;;;;;5060156;28;20053;-68
2021/05/13 05:25:59;;;;;;;13.40;9.25;;;11.90;99.90;;;;;;5059851;28;20032;-68
2021/05/13 05:28:28;;;;;;;14.70;8.32;;;11.90;99.90;;;;;;5060439;28;20029;-74
2021/05/13 05:30:56;;;;;;;13.52;9.55;;;12.00;99.90;;;;;;5059768;28;20099;-71
2021/05/13 05:33:23;;;;;;;12.20;9.07;;;12.00;99.90;;;;;;5058475;28;20120;-70
2021/05/13 05:35:50;;;;;;;13.38;8.70;;;12.00;99.90;;;;;;5059934;28;20025;-71
2021/05/13 05:38:20;;;;;;;13.68;8.93;;;12.10;99.90;;;;;;5058838;28;20017;-71
2021/05/13 05:40:48;;;;;;;12.38;8.02;;;12.10;99.90;;;;;;5058634;28;20071;-71
2021/05/13 05:43:16;;;;;;;12.88;8.57;;;12.20;99.90;;;;;;5057408;28;20025;-71
2021/05/13 05:45:43;;;;;;;14.05;9.48;;;12.20;99.90;;;;;;5058081;28;20377;-71
2021/05/13 05:48:11;;;;;;;14.15;8.65;;;12.30;99.90;;;;;;5058496;28;20024;-72
2021/05/13 05:50:41;;;;;;;13.65;8.65;;;12.30;99.90;;;;;;5058674;28;20083;-72
2021/05/13 05:53:11;;;;;;;11.80;8.02;;;12.40;99.90;;;;;;5057188;28;20417;-71
2021/05/13 05:55:40;;;;;;;13.05;8.68;;;12.50;99.90;;;;;;5059170;28;20329;-73
2021/05/13 05:58:08;;;;;;;10.27;7.57;;;12.60;99.90;;;;;;5059484;28;20321;-73
2021/05/13 06:00:35;;;;;;;14.10;8.95;;;12.70;99.90;;;;;;5058053;28;20052;-72
2021/05/13 06:03:03;;;;;;;11.57;7.53;;;12.70;99.90;;;;;;5059318;28;20043;-71
2021/05/13 06:05:31;;;;;;;11.25;8.02;;;12.80;99.90;;;;;;5057952;28;20025;-70
2021/05/13 06:07:59;;;;;;;12.88;7.93;;;12.90;99.90;;;;;;5057776;28;20025;-70
2021/05/13 06:10:27;;;;;;;12.38;7.65;;;13.00;99.90;;;;;;5058054;28;20104;-70
2021/05/13 06:12:55;;;;;;;11.35;7.40;;;13.10;99.90;;;;;;5056997;28;20025;-72
2021/05/13 06:15:24;;;;;;;9.15;7.10;;;13.20;99.90;;;;;;5056672;28;20110;-71
2021/05/13 06:17:53;;;;;;;10.05;7.13;;;13.30;99.90;;;;;;5058035;28;20049;-71
2021/05/13 06:20:30;;;;;;;15.27;7.13;;;13.30;99.90;;;;;;5058133;28;20036;-70
2021/05/13 06:22:58;;;;;;;10.68;7.68;;;13.40;99.90;;;;;;5057952;28;20045;-71
2021/05/13 06:25:27;;;;;;;11.32;7.65;;;13.50;99.90;;;;;;5057951;28;20025;-80
2021/05/13 06:27:57;;;;;;;9.23;6.60;;;13.50;99.90;;;;;;5058176;28;20112;-76
2021/05/13 06:30:25;;;;;;;10.48;6.40;;;13.60;99.90;;;;;;5058545;28;20060;-77
2021/05/13 06:32:52;;;;;;;10.05;7.03;;;13.70;99.90;;;;;;5057370;28;20075;-78
2021/05/13 06:35:21;;;;;;;8.70;6.28;;;13.80;99.90;;;;;;5058711;28;20017;-76
2021/05/13 06:37:48;;;;;;;14.27;6.93;;;13.90;99.90;;;;;;5057286;28;20044;-75
2021/05/13 06:40:17;;;;;;;9.27;6.40;;;13.90;99.90;;;;;;5057202;28;20066;-76
2021/05/13 06:42:45;;;;;;;8.18;6.18;;;14.00;99.90;;;;;;5056542;28;20078;-71
2021/05/13 06:45:14;;;;;;;12.27;7.05;;;14.00;99.90;;;;;;5057376;28;20028;-69
2021/05/13 06:47:43;;;;;;;9.90;7.25;;;14.10;99.90;;;;;;5057364;28;20021;-71
2021/05/13 06:50:13;;;;;;;10.57;7.40;;;14.20;99.90;;;;;;5057358;28;20025;-69
2021/05/13 06:52:40;;;;;;;9.13;6.13;;;14.30;99.90;;;;;;5057419;28;20131;-69
2021/05/13 06:55:09;;;;;;;9.43;6.57;;;14.30;99.90;;;;;;5057188;28;20079;-69
2021/05/13 06:57:37;;;;;;;8.13;5.85;;;14.40;99.90;;;;;;5057552;28;20313;-69
2021/05/13 07:00:05;;;;;;;9.05;5.93;;;14.50;99.90;;;;;;5058031;28;20025;-69
2021/05/13 07:02:35;;;;;;;7.43;4.95;;;14.60;99.90;;;;;;5058208;28;20436;-70
2021/05/13 07:05:04;;;;;;;10.30;5.50;;;14.70;99.90;;;;;;5058024;28;20490;-70
2021/05/13 07:07:34;;;;;;;10.55;5.43;;;14.70;99.90;;;;;;5058223;28;20417;-69
2021/05/13 07:10:03;;;;;;;9.50;5.82;;;14.80;99.90;;;;;;5057806;28;20063;-69
2021/05/13 07:12:31;;;;;;;12.90;6.20;;;14.80;99.90;;;;;;5058521;28;20286;-68
2021/05/13 07:15:02;;;;;;;8.48;5.55;;;14.90;99.90;;;;;;5056913;28;20083;-68
2021/05/13 07:17:31;;;;;;;8.73;5.38;;;15.00;99.90;;;;;;5056982;28;20136;-68
2021/05/13 07:19:58;;;;;;;8.75;5.25;;;15.10;99.90;;;;;;5055731;28;20025;-68
2021/05/13 07:22:27;;;;;;;8.75;4.45;;;15.20;99.90;;;;;;5057215;28;20021;-68
2021/05/13 07:24:55;;;;;;;8.95;4.70;;;15.20;99.90;;;;;;5057144;28;20067;-68
2021/05/13 07:27:23;;;;;;;6.75;4.35;;;15.30;99.90;;;;;;5057286;28;20025;-68
2021/05/13 07:29:51;;;;;;;7.72;4.20;;;15.40;99.90;;;;;;5058409;28;20045;-68
2021/05/13 07:32:19;;;;;;;6.65;4.53;;;15.40;99.90;;;;;;5058356;28;20028;-68
2021/05/13 07:34:46;;;;;;;6.13;4.18;;;15.50;99.90;;;;;;5057346;28;20025;-68
2021/05/13 07:37:14;;;;;;;4.75;3.78;;;15.50;99.90;;;;;;5056595;28;20083;-68
2021/05/13 07:39:42;;;;;;;8.18;3.83;;;15.60;99.90;;;;;;5055697;28;20028;-68
2021/05/13 07:42:10;;;;;;;5.78;3.88;;;15.70;99.90;;;;;;5055645;28;20048;-71
2021/05/13 07:44:37;;;;;;;8.70;3.47;;;15.70;99.90;;;;;;5057020;28;20070;-69
2021/05/13 07:47:05;;;;;;;7.10;2.85;;;15.80;99.90;;;;;;5055204;28;20320;-69
2021/05/13 07:49:34;;;;;;;6.82;3.35;;;15.80;99.90;;;;;;5056396;28;20025;-75
2021/05/13 07:52:02;;;;;;;7.05;2.80;;;15.90;99.90;;;;;;5056472;28;20099;-69
2021/05/13 07:54:30;;;;;;;6.40;2.97;;;15.90;99.90;;;;;;5055871;28;20036;-69
2021/05/13 07:56:57;;;;;;;6.93;2.90;;;15.90;99.90;;;;;;5057917;28;20025;-69
2021/05/13 07:59:25;;;;;;;4.40;2.53;;;15.90;99.90;;;;;;5057235;28;20032;-69
2021/05/13 08:01:53;;;;;;;6.82;2.88;;;16.00;99.90;;;;;;5057617;28;20027;-70
2021/05/13 08:04:20;;;;;;;6.13;3.60;;;16.10;99.90;;;;;;5057635;28;20021;-70
2021/05/13 08:06:49;;;;;;;6.50;2.40;;;16.20;99.90;;;;;;5057641;28;20406;-69
2021/05/13 08:09:17;;;;;;;7.35;2.90;;;16.30;99.90;;;;;;5056566;28;20045;-69
2021/05/13 08:11:44;;;;;;;4.28;2.45;;;16.40;99.90;;;;;;5056207;28;20032;-70
2021/05/13 08:14:13;;;;;;;4.57;2.70;;;16.50;99.90;;;;;;5056131;28;20488;-70
2021/05/13 08:16:41;;;;;;;4.80;2.35;;;16.60;99.90;;;;;;5054953;28;20029;-70
2021/05/13 08:19:09;;;;;;;5.20;2.60;;;16.70;99.90;;;;;;5056127;28;20021;-70
2021/05/13 08:21:37;;;;;;;4.35;3.22;;;16.70;99.90;;;;;;5056051;28;20021;-70
2021/05/13 08:24:05;;;;;;;9.95;2.53;;;16.90;99.90;;;;;;5055905;28;20045;-70
2021/05/13 08:26:33;;;;;;;5.82;2.60;;;17.00;99.90;;;;;;5056296;28;20043;-69
2021/05/13 08:29:01;;;;;;;6.65;2.30;;;17.10;99.90;;;;;;5056821;28;20037;-69
2021/05/13 08:31:28;;;;;;;7.30;2.28;;;17.20;99.90;;;;;;5056889;28;20425;-68
2021/05/13 08:33:56;;;;;;;6.60;2.30;;;17.30;99.90;;;;;;5057270;28;20021;-68
2021/05/13 08:36:24;;;;;;;5.53;2.17;;;17.30;99.90;;;;;;5056763;28;20021;-69
2021/05/13 08:38:53;;;;;;;6.88;2.47;;;17.40;99.90;;;;;;5056837;28;20414;-68
2021/05/13 08:41:21;;;;;;;7.30;2.30;;;17.50;99.90;;;;;;5057313;28;20124;-68
2021/05/13 08:43:55;;;;;;;9.65;3.08;;;17.60;99.90;;;;;;5055887;28;20013;-68
2021/05/13 08:46:23;;;;;;;7.28;2.20;;;17.70;99.90;;;;;;5056177;28;20313;-68
2021/05/13 08:48:51;;;;;;;4.43;2.50;;;17.90;99.90;;;;;;5055898;28;20036;-68
2021/05/13 08:51:19;;;;;;;4.68;2.22;;;18.00;99.90;;;;;;5058223;28;20017;-69
2021/05/13 08:53:53;;;;;;;9.32;2.80;;;18.20;99.90;;;;;;5059595;28;20028;-70
2021/05/13 08:56:22;;;;;;;8.65;2.40;;;18.30;99.90;;;;;;5058581;28;20328;-69
2021/05/13 08:58:49;;;;;;;7.72;2.50;;;18.40;99.90;;;;;;5059508;28;20017;-69
2021/05/13 09:01:22;;;;;;;4.25;1.80;;;18.50;99.10;;;;;;5058873;28;20047;-68
2021/05/13 09:03:53;;;;;;;5.97;2.33;;;18.50;99.20;;;;;;5060273;28;20025;-69
2021/05/13 09:06:31;;;;;;;6.93;2.40;;;18.50;98.80;;;;;;5061015;28;20028;-68
2021/05/13 09:09:22;;;;;;;6.88;2.47;;;18.60;99.50;;;;;;5060263;28;20047;-68
2021/05/13 09:12:01;;;;;;;5.85;1.98;;;18.70;99.60;;;;;;5060736;28;20069;-68
2021/05/13 09:14:31;;;;;;;5.68;2.25;;;18.80;99.60;;;;;;5058948;28;20032;-69
2021/05/13 09:17:00;;;;;;;5.00;1.38;;;18.90;98.30;;;;;;5059676;28;20310;-69
2021/05/13 09:19:31;;;;;;;10.88;1.45;;;19.00;93.60;;;;;;5059082;28;20100;-69
2021/05/13 09:22:01;;;;;;;6.72;1.60;;;18.90;91.80;;;;;;5059247;28;20021;-68
2021/05/13 09:24:55;;;;;;;6.70;1.63;;;18.80;88.50;;;;;;5057496;28;20052;-68
2021/05/13 09:27:34;;;;;;;4.30;1.35;;;18.70;87.30;;;;;;5059691;28;20100;-69
2021/05/13 09:30:20;;;;;;;7.88;1.42;;;18.70;89.10;;;;;;5059050;28;20021;-69
2021/05/13 09:32:48;;;;;;;;;;;18.70;88.80;;;;;;5059415;28;20021;-69
2021/05/13 09:35:34;;;;;;;7.55;1.73;;;18.60;88.90;;;;;;5059956;28;19909;-69
2021/05/13 09:38:07;;;;;;;6.80;2.17;;;18.70;87.70;;;;;;5058557;28;20017;-69
2021/05/13 09:40:53;;;;;;;8.07;1.60;;;18.70;84.70;;;;;;5059828;28;20417;-69
2021/05/13 09:43:25;;;;;;;5.90;1.60;;;18.60;84.30;;;;;;5060151;28;20024;-69
2021/05/13 09:46:03;;;;;;;7.75;2.28;;;18.60;86.60;;;;;;5059844;28;20357;-69
2021/05/13 09:48:38;;;;;;;5.18;2.55;;;18.50;89.70;;;;;;5059281;28;20096;-69
2021/05/13 09:51:29;;;;;;;5.97;1.50;;;18.50;90.10;;;;;;5058508;28;20071;-69
2021/05/13 09:54:06;;;;;;;5.82;1.60;;;18.50;83.70;;;;;;5058372;28;20029;-70
2021/05/13 09:56:35;;;;;;;4.00;1.88;;;18.40;87.50;;;;;;5057276;28;20059;-69
2021/05/13 09:59:20;;;;;;;6.03;1.77;;;18.50;91.40;;;;;;5058302;28;20021;-70
2021/05/13 10:01:50;;;;;;;4.25;1.80;;;18.50;91.70;;;;;;5057979;28;20021;-69
2021/05/13 10:04:18;;;;;;;6.70;1.67;;;18.60;92.20;;;;;;5058749;28;20029;-69
2021/05/13 10:06:46;;;;;;;8.75;1.65;;;18.70;91.90;;;;;;5057151;28;20075;-69
2021/05/13 10:09:15;;;;;;;4.30;2.00;;;18.70;89.00;;;;;;5059091;28;20051;-70
2021/05/13 10:11:57;;;;;;;13.63;2.25;;;18.80;87.20;;;;;;5059759;28;20076;-69
2021/05/13 10:14:26;;;;;;;3.50;1.50;;;18.80;87.30;;;;;;5059504;28;20353;-70
2021/05/13 10:17:00;;;;;;;7.15;1.50;;;18.90;87.30;;;;;;5059067;28;20026;-69
2021/05/13 10:19:44;;;;;;;6.82;1.15;;;18.90;85.80;;;;;;5059056;28;20013;-69
2021/05/13 10:22:16;;;;;;;6.03;2.10;;;19.00;85.20;;;;;;5058780;28;20027;-69
2021/05/13 10:24:44;;;;;;;9.18;2.00;;;19.00;86.10;;;;;;5058101;28;20041;-69
2021/05/13 10:27:19;;;;;;;5.43;1.25;;;19.20;82.80;;;;;;5057032;28;20036;-70
2021/05/13 10:29:47;;;;;;;5.60;1.60;;;19.30;83.30;;;;;;5057867;28;20071;-69
2021/05/13 10:32:21;;;;;;;5.93;1.65;;;19.30;82.10;;;;;;5058273;28;20032;-69
2021/05/13 10:34:57;;;;;;;5.10;1.63;;;19.50;83.10;;;;;;5057922;28;20025;-69
2021/05/13 10:37:31;;;;;;;8.27;2.45;;;19.60;81.90;;;;;;5057849;28;20345;-69
2021/05/13 10:40:29;;;;;;;5.07;1.15;;;19.70;81.30;;;;;;5057600;28;20417;-69
2021/05/13 10:43:06;;;;;;;4.95;2.03;;;19.80;81.00;;;;;;5057729;28;20066;-69
2021/05/13 10:45:47;;;;;;;7.43;1.88;;;19.90;80.50;;;;;;5057674;28;20029;-69
2021/05/13 10:48:39;;;;;;;7.05;1.30;;;20.00;79.60;;;;;;5058325;28;20029;-69
2021/05/13 10:51:10;;;;;;;4.75;1.52;;;20.00;79.30;;;;;;5058976;28;20051;-69
2021/05/13 10:53:48;;;;;;;8.35;1.30;;;20.10;78.00;;;;;;5058776;28;20033;-70
2021/05/13 10:56:17;;;;;;;8.10;1.70;;;20.10;78.70;;;;;;5058290;28;20087;-69
2021/05/13 10:59:03;;;;;;;3.47;1.02;;;20.30;76.80;;;;;;5058419;28;20060;-70
2021/05/13 11:01:38;;;;;;;4.70;1.35;;;20.40;75.90;;;;;;5057831;28;20017;-69
2021/05/13 11:04:24;;;;;;;6.82;1.77;;;20.60;76.20;;;;;;5056970;28;20086;-69
2021/05/13 11:06:51;;;;;;;;;;;20.70;75.20;;;;;;5057637;28;20056;-70
2021/05/13 11:09:50;;;;;;;5.93;1.30;;;20.90;75.80;;;;;;5057268;28;19958;-69
2021/05/13 11:12:20;;;;;;;4.22;1.33;;;21.10;74.50;;;;;;5055987;28;20060;-69
2021/05/13 11:20:30;;;;;;;5.75;1.23;;;21.30;71.90;;;;;;5057440;28;20029;-68
2021/05/13 11:23:05;;;;;;;6.88;1.55;;;21.30;70.70;;;;;;5058056;28;20048;-69
2021/05/13 11:25:38;;;;;;;5.65;1.70;;;21.30;70.30;;;;;;5058349;28;20037;-69
2021/05/13 11:28:51;;;;;;;5.70;2.22;;;21.30;71.80;;;;;;5058015;28;20025;-69
2021/05/13 11:31:23;;;;;;;6.88;1.42;;;21.40;70.60;;;;;;5056610;28;20321;-70
2021/05/13 11:33:54;;;;;;;3.65;1.27;;;21.50;68.70;;;;;;5057703;28;20024;-70
2021/05/13 11:36:30;;;;;;;2.90;1.05;;;21.60;68.30;;;;;;5056667;28;20155;-69
2021/05/13 11:38:59;;;;;;;7.18;1.85;;;21.80;67.90;;;;;;5056978;28;20346;-69
2021/05/13 11:41:28;;;;;;;13.75;2.78;;;21.90;68.30;;;;;;5056655;28;20024;-69
2021/05/13 11:43:55;;;;;;;6.28;1.20;;;21.90;65.40;;;;;;5056558;28;20367;-70
2021/05/13 11:46:25;;;;;;;5.78;1.10;;;22.00;66.40;;;;;;5056580;28;20025;-70
2021/05/13 11:48:54;;;;;;;9.85;1.48;;;22.00;65.30;;;;;;5056674;28;20104;-69
2021/05/13 11:51:24;;;;;;;6.53;1.98;;;22.10;65.80;;;;;;5056950;28;20017;-68
2021/05/13 11:53:55;;;;;;;6.80;1.60;;;22.20;64.10;;;;;;5057388;28;20036;-68
2021/05/13 11:56:23;;;;;;;4.53;1.35;;;22.20;64.00;;;;;;5056441;28;20033;-68
2021/05/13 11:58:52;;;;;;;5.68;1.95;;;22.10;61.90;;;;;;5057921;28;20087;-69
2021/05/13 12:01:27;;;;;;;4.28;1.60;;;22.00;63.90;;;;;;5056238;28;20057;-69
2021/05/13 12:03:59;;;;;;;5.90;2.28;;;22.00;63.60;;;;;;5056084;28;20055;-69
2021/05/13 12:06:28;;;;;;;10.65;1.92;;;22.10;62.40;;;;;;5056942;28;20056;-68
2021/05/13 12:09:00;;;;;;;4.63;1.25;;;22.00;60.50;;;;;;5056462;28;20031;-69
2021/05/13 12:11:29;;;;;;;12.60;2.45;;;21.90;62.60;;;;;;5056856;28;20032;-68
2021/05/13 12:13:58;;;;;;;5.32;1.65;;;21.70;62.40;;;;;;5056200;28;20329;-68
2021/05/13 12:19:07;;;;;;;8.85;1.55;;;21.60;62.70;;;;;;5039569;22;20107;-68
2021/05/13 12:21:37;;;;;;;4.80;1.67;;;21.70;63.70;;;;;;5036314;28;20068;-68
2021/05/13 12:24:09;;;;;;;5.05;1.50;;;21.90;62.80;;;;;;5036979;28;20034;-68
2021/05/13 12:26:39;;;;;;;6.85;2.03;;;22.10;62.90;;;;;;5021728;28;20025;-68
2021/05/13 12:29:14;;;;;;;5.57;1.67;;;22.20;61.90;;;;;;5041425;28;20045;-68
2021/05/13 12:31:47;;;;;;;4.28;1.60;;;22.40;59.60;;;;;;5041137;28;20018;-68
2021/05/13 12:34:33;;;;;;;3.25;1.17;;;22.40;60.50;;;;;;5041245;28;20091;-68
2021/05/13 12:37:01;;;;;;;4.28;1.23;;;22.40;60.30;;;;;;5040861;28;20033;-68
2021/05/13 12:39:31;;;;;;;6.10;1.20;;;22.40;59.70;;;;;;5041538;28;20029;-68
2021/05/13 12:41:59;;;;;;;4.28;1.13;;;22.50;61.30;;;;;;5041349;28;20026;-68
2021/05/13 12:44:32;;;;;;;5.80;1.85;;;22.50;59.90;;;;;;5022835;28;20034;-68
2021/05/13 12:47:05;;;;;;;5.45;1.67;;;22.50;58.50;;;;;;5040092;28;20036;-68
2021/05/13 12:49:33;;;;;;;5.40;1.40;;;22.40;58.40;;;;;;5039912;28;20026;-68
2021/05/13 12:52:02;;;;;;;4.22;1.50;;;22.40;59.00;;;;;;5039826;28;20318;-68
2021/05/13 12:54:31;;;;;;;7.45;1.20;;;22.50;59.20;;;;;;5022075;28;20032;-68
2021/05/13 12:57:19;;;;;;;7.32;1.45;;;22.60;60.00;;;;;;5039710;28;20021;-68
2021/05/13 12:59:55;;;;;;;5.22;1.17;;;22.80;60.00;;;;;;5039603;28;20452;-68
2021/05/13 13:02:31;;;;;;;4.45;1.73;;;22.80;56.70;;;;;;5040354;28;20053;-68
2021/05/13 13:05:00;;;;;;;6.20;1.63;;;22.70;57.50;;;;;;5041145;28;20025;-68
2021/05/13 13:07:39;;;;;;;2.72;1.13;;;22.60;57.50;;;;;;5040985;28;20104;-68
2021/05/13 13:10:28;;;;;;;5.50;1.40;;;22.60;56.70;;;;;;5040539;28;20409;-68
2021/05/13 13:13:20;;;;;;;3.33;1.10;;;22.70;56.40;;;;;;5041302;28;20465;-68
2021/05/13 13:16:01;;;;;;;2.92;1.30;;;22.80;56.90;;;;;;5040522;28;20026;-68
2021/05/13 13:18:31;;;;;;;4.28;1.50;;;22.80;56.40;;;;;;5038925;28;20127;-68